Time;durP1;ratioP1;P1;durP2;ratioP2;P2;SDS_P1;SDS_P2;PMS_P1;PMS_P2;Temp;Humidity;BMP_temperature;BMP_pressure;BME280_temperature;BME280_humidity;BME280_pressure;Samples;Min_cycle;Max_cycle;Signal;HPM_P1;HPM_P2
2022/12/10 00:01:31;;;;;;;38.85;23.05;;;;;;;0.91;100.00;99142.23;1744859;82;21042;-72
2022/12/10 00:03:59;;;;;;;43.28;24.47;;;;;;;0.96;100.00;99134.33;1733069;82;21074;-71
2022/12/10 00:06:29;;;;;;;40.08;23.35;;;;;;;0.99;100.00;99125.05;1735163;82;20986;-72
2022/12/10 00:08:56;;;;;;;38.65;23.22;;;;;;;0.99;100.00;99122.36;1724561;82;21106;-71
2022/12/10 00:11:23;;;;;;;38.10;22.35;;;;;;;0.93;100.00;99109.84;1727919;82;21066;-71
2022/12/10 00:13:51;;;;;;;39.80;23.75;;;;;;;0.93;100.00;99102.63;1744004;81;21549;-72
2022/12/10 00:16:20;;;;;;;42.98;24.40;;;;;;;0.97;100.00;99100.31;1730871;82;20999;-72
2022/12/10 00:18:47;;;;;;;42.45;25.80;;;;;;;1.00;100.00;99090.47;1736500;82;21346;-71
2022/12/10 00:21:17;;;;;;;46.68;26.57;;;;;;;0.97;100.00;99086.39;1737933;82;20926;-72
2022/12/10 00:23:45;;;;;;;54.33;27.10;;;;;;;0.91;100.00;99079.78;1723113;83;21050;-72
2022/12/10 00:26:16;;;;;;;48.28;27.70;;;;;;;0.90;100.00;99078.13;1737710;82;21035;-72
2022/12/10 00:28:44;;;;;;;49.58;28.27;;;;;;;0.95;100.00;99076.43;1737120;82;21076;-72
2022/12/10 00:31:14;;;;;;;51.88;29.10;;;;;;;0.98;100.00;99071.13;1734102;82;21488;-72
2022/12/10 00:33:41;;;;;;;47.78;26.50;;;;;;;0.98;100.00;99081.86;1728730;82;21082;-72
2022/12/10 00:36:15;;;;;;;56.33;30.17;;;;;;;0.93;100.00;99079.02;1748794;82;20979;-72
2022/12/10 00:38:42;;;;;;;47.85;26.33;;;;;;;0.86;100.00;99072.41;1744447;82;21104;-72
2022/12/10 00:41:09;;;;;;;45.50;25.45;;;;;;;0.86;100.00;99064.89;1733503;82;21482;-72
2022/12/10 00:43:36;;;;;;;42.48;23.25;;;;;;;0.91;100.00;99065.86;1731204;82;21585;-71
2022/12/10 00:46:05;;;;;;;44.33;22.30;;;;;;;0.94;100.00;99057.89;1751908;82;20958;-71
2022/12/10 00:48:32;;;;;;;44.95;22.95;;;;;;;0.90;100.00;99051.34;1733457;81;21031;-72
2022/12/10 00:51:02;;;;;;;40.50;21.30;;;;;;;0.90;100.00;99058.03;1737984;82;21464;-72
2022/12/10 00:53:29;;;;;;;39.63;22.93;;;;;;;0.93;100.00;99046.34;1751698;82;21036;-72
2022/12/10 00:55:57;;;;;;;39.20;20.62;;;;;;;0.93;100.00;99042.84;1738429;82;21345;-72
2022/12/10 00:58:27;;;;;;;40.48;20.40;;;;;;;0.94;100.00;99041.81;1725970;82;21043;-71
2022/12/10 01:00:54;;;;;;;38.17;20.55;;;;;;;0.90;100.00;99035.27;1724012;82;21509;-72
2022/12/10 01:03:21;;;;;;;34.18;19.23;;;;;;;0.89;100.00;99026.91;1726139;82;21113;-72
2022/12/10 01:05:48;;;;;;;31.02;18.52;;;;;;;0.96;100.00;99024.45;1726527;82;20991;-73
2022/12/10 01:08:15;;;;;;;44.33;20.35;;;;;;;1.04;100.00;99017.13;1723469;82;21629;-72
2022/12/10 01:10:42;;;;;;;42.13;20.40;;;;;;;1.02;100.00;98997.80;1728168;82;21086;-72
2022/12/10 01:13:10;;;;;;;32.40;18.40;;;;;;;1.06;100.00;98983.72;1705738;81;21090;-71
2022/12/10 01:15:39;;;;;;;35.30;19.80;;;;;;;1.08;100.00;98990.17;1744769;81;21494;-72
2022/12/10 01:18:06;;;;;;;40.67;19.12;;;;;;;1.07;100.00;99001.41;1733039;81;21142;-71
2022/12/10 01:20:36;;;;;;;47.13;18.73;;;;;;;1.02;100.00;98993.25;1756072;81;21067;-71
2022/12/10 01:23:03;;;;;;;38.40;18.85;;;;;;;0.94;100.00;98994.91;1777651;80;21070;-70
2022/12/10 01:25:32;;;;;;;31.20;17.12;;;;;;;0.89;100.00;98994.76;1703253;83;21037;-71
2022/12/10 01:28:00;;;;;;;29.92;15.93;;;;;;;0.92;100.00;98997.02;1697859;83;21093;-71
2022/12/10 01:30:27;;;;;;;34.83;16.70;;;;;;;0.95;100.00;98993.88;1687882;84;21021;-72
2022/12/10 01:32:54;;;;;;;30.55;16.55;;;;;;;0.92;100.00;98999.14;1719586;83;21156;-71
2022/12/10 01:35:22;;;;;;;27.75;15.08;;;;;;;0.89;100.00;98985.38;1692950;84;21037;-71
2022/12/10 01:37:49;;;;;;;21.65;12.98;;;;;;;0.89;100.00;98987.55;1704827;83;21137;-72
2022/12/10 01:40:16;;;;;;;21.68;11.80;;;;;;;0.90;100.00;98982.48;1667585;84;21093;-72
2022/12/10 01:42:45;;;;;;;19.65;10.88;;;;;;;0.93;100.00;98973.98;1691208;84;21089;-72
2022/12/10 01:45:14;;;;;;;21.52;11.50;;;;;;;0.92;100.00;98969.66;1716404;83;21026;-72
2022/12/10 01:47:41;;;;;;;17.23;10.53;;;;;;;0.88;100.00;98968.52;1718555;83;21124;-72
2022/12/10 01:50:09;;;;;;;17.05;11.20;;;;;;;0.85;100.00;98967.60;1718025;83;21077;-72
2022/12/10 01:52:37;;;;;;;18.70;9.85;;;;;;;0.88;100.00;98962.33;1693426;83;21255;-73
2022/12/10 01:55:10;;;;;;;19.98;10.08;;;;;;;0.92;100.00;98951.45;1704583;83;21053;-71
2022/12/10 01:57:37;;;;;;;18.75;9.83;;;;;;;0.90;100.00;98942.30;1690698;84;21623;-73
2022/12/10 02:00:06;;;;;;;16.48;10.13;;;;;;;0.88;100.00;98947.08;1699061;83;21042;-73
2022/12/10 02:02:43;;;;;;;14.80;9.38;;;;;;;0.91;100.00;98947.95;1705815;83;21048;-72
2022/12/10 02:05:21;;;;;;;16.95;10.25;;;;;;;0.92;100.00;98942.87;1685231;84;21058;-72
2022/12/10 02:08:15;;;;;;;17.23;9.78;;;;;;;0.93;100.00;98939.67;1695301;84;21087;-73
2022/12/10 02:11:02;;;;;;;16.23;10.98;;;;;;;0.87;100.00;98933.89;1679862;84;21038;-73
2022/12/10 02:13:37;;;;;;;14.05;9.60;;;;;;;0.88;100.00;98931.52;1669475;84;21066;-73
2022/12/10 02:16:21;;;;;;;19.70;9.95;;;;;;;0.91;100.00;98924.36;1692654;84;20999;-73
2022/12/10 02:19:00;;;;;;;17.12;9.23;;;;;;;0.96;100.00;98923.95;1701104;84;21483;-72
2022/12/10 06:15:19;;;;;;;25.45;16.27;;;;;;;-0.39;100.00;98657.57;1806705;79;22345;-70
2022/12/10 06:17:46;;;;;;;21.25;15.35;;;;;;;-0.31;100.00;98670.08;1765995;79;21058;-70
2022/12/10 06:20:14;;;;;;;16.95;12.18;;;;;;;-0.11;100.00;98671.14;1759297;80;21050;-71
2022/12/10 06:22:41;;;;;;;16.05;11.05;;;;;;;0.04;100.00;98666.16;1754018;80;21079;-71
2022/12/10 06:25:08;;;;;;;16.00;10.68;;;;;;;0.19;100.00;98656.34;1753722;81;21046;-71
2022/12/10 06:27:35;;;;;;;11.85;8.83;;;;;;;0.33;100.00;98662.59;1722632;80;21096;-72
2022/12/10 06:30:02;;;;;;;8.80;6.55;;;;;;;0.44;100.00;98670.34;1755935;80;21045;-70
2022/12/10 06:32:29;;;;;;;7.80;5.83;;;;;;;0.56;100.00;98667.15;1754239;80;21086;-71
2022/12/10 06:34:56;;;;;;;8.08;5.42;;;;;;;0.66;100.00;98666.03;1753148;80;21043;-70
2022/12/10 06:37:23;;;;;;;7.35;5.65;;;;;;;0.71;100.00;98662.11;1777638;80;21090;-70
2022/12/10 06:39:56;;;;;;;8.20;5.47;;;;;;;0.71;100.00;98669.36;1774580;80;21042;-70
2022/12/10 06:42:21;;;;;;;6.45;5.00;;;;;;;0.77;100.00;98664.39;1677501;80;77797;-72
2022/12/10 06:44:49;;;;;;;6.37;5.20;;;;;;;0.79;100.00;98663.10;1660051;85;21559;-73
2022/12/10 06:47:16;;;;;;;7.50;5.40;;;;;;;0.77;100.00;98659.86;1660077;84;21104;-73
2022/12/10 06:49:43;;;;;;;7.80;5.62;;;;;;;0.81;100.00;98650.30;1676854;84;21629;-73
2022/12/10 06:52:10;;;;;;;7.30;5.75;;;;;;;0.87;100.00;98649.88;1612500;87;21759;-73
2022/12/10 06:54:37;;;;;;;8.65;6.53;;;;;;;0.90;100.00;98643.52;1628184;87;21115;-73
2022/12/10 06:57:04;;;;;;;7.78;6.00;;;;;;;0.88;100.00;98646.16;1671553;84;21050;-73
2022/12/10 06:59:32;;;;;;;7.78;5.42;;;;;;;0.87;100.00;98644.00;1677499;84;21024;-73
2022/12/10 07:01:59;;;;;;;7.40;5.45;;;;;;;0.92;100.00;98633.92;1650895;86;21117;-73
2022/12/10 07:04:26;;;;;;;6.53;4.78;;;;;;;0.95;100.00;98636.94;1680716;84;21009;-74
2022/12/10 07:06:53;;;;;;;7.85;6.25;;;;;;;0.98;100.00;98639.66;1673551;84;21072;-73
2022/12/10 07:09:20;;;;;;;7.47;5.95;;;;;;;0.94;100.00;98639.84;1666229;86;21491;-73
2022/12/10 07:11:47;;;;;;;8.20;5.90;;;;;;;0.94;100.00;98633.14;1674665;84;21661;-73
2022/12/10 07:14:15;;;;;;;7.47;5.60;;;;;;;1.01;100.00;98624.45;1671993;84;21032;-73
2022/12/10 07:16:42;;;;;;;7.33;5.62;;;;;;;1.06;100.00;98627.24;1656916;85;21099;-74
2022/12/10 07:19:11;;;;;;;8.70;5.92;;;;;;;1.06;100.00;98617.05;1674515;84;21499;-73
2022/12/10 07:21:40;;;;;;;9.23;5.80;;;;;;;0.99;100.00;98609.94;1674633;85;21067;-74
2022/12/10 07:24:10;;;;;;;9.40;6.20;;;;;;;1.10;100.00;98617.65;1676884;84;21375;-74
2022/12/10 07:26:39;;;;;;;8.43;6.42;;;;;;;1.17;100.00;98614.86;1658027;85;21040;-73
2022/12/10 07:29:09;;;;;;;9.10;6.72;;;;;;;1.14;100.00;98611.28;1674856;84;21605;-74
2022/12/10 07:31:36;;;;;;;8.35;6.20;;;;;;;1.12;100.00;98599.48;1615719;87;21152;-73
2022/12/10 07:34:03;;;;;;;7.65;5.58;;;;;;;1.15;100.00;98596.32;1633274;86;21064;-73
2022/12/10 07:36:31;;;;;;;9.93;5.97;;;;;;;1.17;100.00;98609.50;1669993;84;22274;-73
2022/12/10 07:38:58;;;;;;;8.90;6.17;;;;;;;1.19;100.00;98598.00;1673593;84;21303;-74
2022/12/10 07:41:25;;;;;;;8.43;5.80;;;;;;;1.16;100.00;98595.80;1652826;86;21145;-73
2022/12/10 07:43:54;;;;;;;7.75;5.95;;;;;;;1.15;100.00;98600.34;1654119;84;21005;-74
2022/12/10 07:46:28;;;;;;;7.80;5.85;;;;;;;1.19;100.00;98600.16;1672864;84;21114;-74
2022/12/10 07:48:55;;;;;;;9.85;6.60;;;;;;;1.21;100.00;98593.20;1671045;84;21463;-74
2022/12/10 07:51:22;;;;;;;9.88;6.28;;;;;;;1.18;100.00;98590.48;1671460;84;21040;-74
2022/12/10 07:53:51;;;;;;;9.58;6.00;;;;;;;1.18;100.00;98589.14;1676929;84;21040;-74
2022/12/10 07:56:18;;;;;;;9.73;6.60;;;;;;;1.23;100.00;98589.25;1672929;84;21532;-75
2022/12/10 07:58:45;;;;;;;9.65;6.80;;;;;;;1.27;100.00;98585.56;1667966;84;21543;-75
2022/12/10 08:01:15;;;;;;;9.15;6.53;;;;;;;1.29;100.00;98590.96;1667681;84;21139;-75
2022/12/10 08:03:42;;;;;;;11.00;7.00;;;;;;;1.29;100.00;98580.23;1674342;84;20992;-75
2022/12/10 08:06:13;;;;;;;13.05;7.25;;;;;;;1.29;100.00;98576.73;1670971;84;21957;-75
2022/12/10 08:08:40;;;;;;;10.00;6.55;;;;;;;1.29;100.00;98580.23;1670157;85;20953;-76
2022/12/10 08:11:07;;;;;;;9.35;6.60;;;;;;;1.32;100.00;98581.09;1672023;86;21075;-74
2022/12/10 08:13:35;;;;;;;11.53;8.03;;;;;;;1.35;100.00;98583.29;1669977;85;22226;-74
2022/12/10 08:16:07;;;;;;;12.93;7.65;;;;;;;1.38;100.00;98580.67;1673769;84;21151;-75
2022/12/10 08:18:34;;;;;;;10.75;7.22;;;;;;;1.33;100.00;98579.23;1668569;84;21079;-75
2022/12/10 08:21:06;;;;;;;11.18;7.60;;;;;;;1.34;100.00;98570.14;1673907;84;21068;-74
2022/12/10 08:23:34;;;;;;;12.33;7.37;;;;;;;1.38;100.00;98567.27;1667740;85;21586;-76
2022/12/10 08:26:11;;;;;;;11.53;7.45;;;;;;;1.42;100.00;98557.14;1653523;85;21095;-75
2022/12/10 08:28:38;;;;;;;12.53;7.75;;;;;;;1.42;100.00;98554.45;1675998;85;21015;-74
2022/12/10 08:31:07;;;;;;;11.65;7.50;;;;;;;1.40;100.00;98553.90;1674945;85;21115;-75
2022/12/10 08:33:37;;;;;;;12.35;8.63;;;;;;;1.42;100.00;98537.02;1638755;85;21058;-75
2022/12/10 08:36:05;;;;;;;15.50;8.45;;;;;;;1.47;100.00;98542.49;1626181;87;21964;-76
2022/12/10 08:38:33;;;;;;;12.35;6.90;;;;;;;1.52;100.00;98538.27;1670016;84;20961;-76
2022/12/10 08:41:12;;;;;;;10.08;7.62;;;;;;;1.52;100.00;98540.95;1674279;85;21040;-75
2022/12/10 08:43:40;;;;;;;12.25;8.13;;;;;;;1.52;100.00;98536.94;1679427;85;20974;-75
2022/12/10 08:46:07;;;;;;;13.38;8.18;;;;;;;1.56;100.00;98536.73;1677926;84;21104;-76
2022/12/10 08:48:34;;;;;;;11.88;7.87;;;;;;;1.59;100.00;98528.20;1695518;84;21023;-75
2022/12/10 08:51:02;;;;;;;9.75;6.85;;;;;;;1.61;100.00;98530.92;1689854;84;21553;-75
2022/12/10 08:53:31;;;;;;;11.05;7.28;;;;;;;1.67;100.00;98525.09;1664174;84;21838;-75
2022/12/10 08:55:58;;;;;;;11.15;7.30;;;;;;;1.66;100.00;98520.80;1671203;84;21024;-72
2022/12/10 08:58:25;;;;;;;9.45;6.60;;;;;;;1.65;100.00;98517.30;1673156;84;20992;-73
2022/12/10 09:00:52;;;;;;;12.43;7.30;;;;;;;1.68;100.00;98512.79;1666145;85;20980;-73
2022/12/10 09:03:19;;;;;;;10.95;7.42;;;;;;;1.72;100.00;98513.94;1656671;85;21075;-73
2022/12/10 09:05:47;;;;;;;15.25;7.50;;;;;;;1.77;100.00;98515.89;1669294;84;21079;-73
2022/12/10 09:08:15;;;;;;;12.33;6.62;;;;;;;1.75;100.00;98501.89;1666160;84;21081;-73
2022/12/10 09:10:42;;;;;;;12.80;6.92;;;;;;;1.78;100.00;98509.45;1653379;85;21043;-73
2022/12/10 09:13:09;;;;;;;12.95;6.65;;;;;;;1.80;100.00;98497.95;1673786;84;21133;-72
2022/12/10 09:15:37;;;;;;;10.18;6.15;;;;;;;1.86;100.00;98506.36;1661552;85;21056;-72
2022/12/10 09:18:04;;;;;;;9.53;6.10;;;;;;;1.90;100.00;98492.73;1612314;87;21119;-73
2022/12/10 09:20:31;;;;;;;11.73;7.03;;;;;;;1.88;100.00;98495.66;1619193;86;21112;-73
2022/12/10 09:22:59;;;;;;;11.83;6.85;;;;;;;1.87;100.00;98500.77;1627032;86;21121;-72
2022/12/10 09:25:26;;;;;;;11.60;7.83;;;;;;;1.87;100.00;98498.08;1636631;86;21056;-73
2022/12/10 09:27:53;;;;;;;13.30;7.45;;;;;;;1.91;100.00;98496.50;1647887;86;21113;-72
2022/12/10 09:30:22;;;;;;;13.68;8.15;;;;;;;1.86;100.00;98480.34;1635712;86;21063;-70
2022/12/10 09:32:49;;;;;;;11.95;7.42;;;;;;;1.94;100.00;98495.22;1620474;86;21142;-72
2022/12/10 09:35:16;;;;;;;13.65;7.85;;;;;;;1.95;100.00;98498.98;1614746;88;21552;-71
2022/12/10 09:37:44;;;;;;;16.87;8.33;;;;;;;1.94;100.00;98487.16;1629239;86;21083;-71
2022/12/10 09:40:18;;;;;;;11.57;7.90;;;;;;;1.90;100.00;98489.53;1628316;86;21582;-71
2022/12/10 09:42:57;;;;;;;12.30;7.60;;;;;;;1.90;100.00;98469.92;1651794;86;21097;-72
2022/12/10 09:45:38;;;;;;;15.03;8.15;;;;;;;1.92;100.00;98466.45;1674002;84;21020;-72
2022/12/10 09:48:29;;;;;;;15.75;8.28;;;;;;;1.94;100.00;98454.96;1674422;84;21368;-71
2022/12/10 09:51:16;;;;;;;16.25;9.85;;;;;;;1.95;100.00;98452.54;1672200;84;21061;-72
2022/12/10 09:53:43;;;;;;;13.88;8.93;;;;;;;1.90;100.00;98454.64;1670608;84;21099;-72
2022/12/10 09:56:23;;;;;;;18.60;10.20;;;;;;;1.91;100.00;98458.14;1671469;84;21667;-71
2022/12/10 09:58:51;;;;;;;22.73;11.12;;;;;;;1.98;100.00;98458.22;1650653;84;21035;-72
2022/12/10 10:01:20;;;;;;;64.10;27.85;;;;;;;2.04;100.00;98446.23;1676544;84;21103;-72
2022/12/10 10:03:47;;;;;;;53.17;24.52;;;;;;;2.06;100.00;98460.20;1675560;84;21083;-71
2022/12/10 10:06:15;;;;;;;17.62;9.83;;;;;;;2.07;100.00;98454.59;1665166;84;21480;-71
2022/12/10 10:08:46;;;;;;;15.05;8.83;;;;;;;2.13;100.00;98448.23;1678947;84;21044;-71
2022/12/10 10:11:21;;;;;;;12.23;7.72;;;;;;;2.17;100.00;98453.91;1663513;84;21159;-71
2022/12/10 13:53:17;;;;;;;46.10;27.50;;;;;;;1.50;100.00;98426.68;1793286;78;22755;-74
2022/12/10 13:56:15;;;;;;;39.42;24.47;;;;;;;1.64;100.00;98439.22;1779248;79;21046;-72
2022/12/10 13:59:17;;;;;;;35.50;21.73;;;;;;;1.83;100.00;98436.56;1746909;78;21116;-74
2022/12/10 14:02:22;;;;;;;29.60;20.17;;;;;;;1.99;100.00;98433.55;1743666;79;21090;-76
2022/12/10 14:05:43;;;;;;;27.77;18.40;;;;;;;2.08;100.00;98429.91;1718378;80;21056;-75
2022/12/10 14:08:16;;;;;;;23.62;16.27;;;;;;;2.24;100.00;98429.84;1693507;82;22266;-76
2022/12/10 14:10:43;;;;;;;21.30;14.63;;;;;;;2.33;100.00;98431.05;1714074;81;21072;-76
2022/12/10 14:13:13;;;;;;;20.92;15.08;;;;;;;2.43;100.00;98433.04;1717238;82;21139;-75
2022/12/10 14:15:40;;;;;;;24.10;15.40;;;;;;;2.50;100.00;98433.66;1724519;81;21106;-75
2022/12/10 14:18:13;;;;;;;19.95;13.22;;;;;;;2.57;100.00;98432.94;1738923;81;21143;-75
2022/12/10 14:20:49;;;;;;;20.95;14.25;;;;;;;2.64;100.00;98433.55;1692204;82;21555;-75
2022/12/10 14:23:34;;;;;;;23.80;15.60;;;;;;;2.69;100.00;98438.18;1708852;80;21099;-75
2022/12/10 14:26:24;;;;;;;21.12;14.23;;;;;;;2.77;100.00;98428.30;1706202;80;21056;-75
2022/12/10 14:29:03;;;;;;;26.45;16.25;;;;;;;2.79;100.00;98432.38;1704858;81;21725;-75
2022/12/10 14:31:34;;;;;;;33.50;14.95;;;;;;;2.75;100.00;98437.16;1728953;80;21086;-79
2022/12/10 14:34:07;;;;;;;23.05;15.25;;;;;;;2.71;100.00;98436.04;1707675;81;21553;-75
2022/12/10 14:36:39;;;;;;;24.10;15.48;;;;;;;2.73;100.00;98433.93;1711816;81;21053;-75
2022/12/10 14:39:23;;;;;;;23.62;17.00;;;;;;;2.79;100.00;98429.69;1726245;81;21078;-76
2022/12/10 14:41:53;;;;;;;48.80;29.15;;;;;;;2.84;100.00;98435.10;1715019;80;21059;-75
2022/12/10 14:44:20;;;;;;;49.95;29.23;;;;;;;2.89;100.00;98439.20;1688282;83;21586;-75
2022/12/10 14:46:48;;;;;;;59.05;32.20;;;;;;;2.92;100.00;98432.49;1722381;80;21612;-76
2022/12/10 14:49:25;;;;;;;47.35;22.62;;;;;;;2.98;100.00;98432.29;1734403;80;21094;-75
2022/12/10 14:51:52;;;;;;;30.55;17.70;;;;;;;2.97;100.00;98444.66;1721354;81;21054;-75
2022/12/10 14:54:28;;;;;;;24.32;15.88;;;;;;;2.95;100.00;98451.62;1701049;82;21099;-75
2022/12/10 14:56:56;;;;;;;34.40;22.07;;;;;;;2.98;100.00;98436.32;1732768;80;21017;-75
2022/12/10 14:59:29;;;;;;;28.60;17.17;;;;;;;3.01;100.00;98435.02;1716630;80;21055;-76
2022/12/10 15:01:58;;;;;;;33.40;17.67;;;;;;;3.03;100.00;98441.47;1680748;83;21002;-76
2022/12/10 15:04:25;;;;;;;46.02;20.32;;;;;;;3.02;100.00;98442.00;1697588;82;21077;-76
2022/12/10 15:06:53;;;;;;;33.15;19.50;;;;;;;2.96;100.00;98444.37;1704222;83;20979;-75
2022/12/10 15:09:22;;;;;;;68.50;42.15;;;;;;;2.95;100.00;98442.20;1642214;85;21136;-75
2022/12/10 15:11:57;;;;;;;26.45;18.27;;;;;;;3.01;100.00;98441.74;1681983;84;21059;-75
2022/12/10 15:14:28;;;;;;;27.30;17.50;;;;;;;3.06;100.00;98445.80;1715887;80;21078;-77
2022/12/10 15:16:56;;;;;;;25.75;17.05;;;;;;;3.09;100.00;98452.02;1694061;81;21012;-77
2022/12/10 15:19:35;;;;;;;36.77;18.90;;;;;;;3.10;100.00;98452.83;1745799;80;21557;-75
2022/12/10 15:22:21;;;;;;;28.30;18.50;;;;;;;3.03;100.00;98448.19;1711413;80;21082;-75
2022/12/10 15:24:48;;;;;;;27.05;18.20;;;;;;;3.01;100.00;98441.18;1714791;81;21124;-75
2022/12/10 15:27:24;;;;;;;28.57;17.15;;;;;;;3.04;100.00;98435.04;1720833;81;21038;-76
2022/12/10 15:29:52;;;;;;;27.77;18.23;;;;;;;3.05;100.00;98448.20;1724631;81;21545;-76
2022/12/10 15:32:27;;;;;;;30.45;17.32;;;;;;;3.11;100.00;98453.12;1732443;81;20987;-75
2022/12/10 15:35:00;;;;;;;34.00;19.62;;;;;;;3.12;100.00;98454.75;1708670;81;21107;-74
2022/12/10 15:37:31;;;;;;;63.63;33.80;;;;;;;3.07;100.00;98454.69;1699856;83;21037;-76
2022/12/10 15:40:00;;;;;;;51.98;32.23;;;;;;;3.07;100.00;98454.16;1695735;84;21072;-75
2022/12/10 15:42:38;;;;;;;57.15;30.40;;;;;;;3.14;100.00;98459.33;1677984;84;21090;-76
2022/12/10 15:45:22;;;;;;;33.83;16.57;;;;;;;3.17;100.00;98452.09;1728084;81;21111;-77
2022/12/10 15:47:50;;;;;;;29.42;13.55;;;;;;;3.21;100.00;98451.33;1734431;80;21019;-77
2022/12/10 15:50:17;;;;;;;29.20;19.57;;;;;;;3.18;100.00;98445.66;1723814;80;21060;-75
2022/12/10 15:52:44;;;;;;;31.75;21.97;;;;;;;3.15;100.00;98442.14;1727001;80;21550;-76
2022/12/10 15:55:13;;;;;;;34.03;19.95;;;;;;;3.12;100.00;98447.47;1729257;80;21606;-76
2022/12/10 15:57:44;;;;;;;42.00;22.48;;;;;;;3.09;100.00;98449.85;1709928;82;21684;-76
2022/12/10 16:00:19;;;;;;;45.70;25.60;;;;;;;3.05;100.00;98446.08;1721858;80;21066;-76
2022/12/10 16:02:51;;;;;;;54.23;26.05;;;;;;;3.06;100.00;98453.87;1698770;82;21047;-74
2022/12/10 16:05:29;;;;;;;36.85;21.45;;;;;;;3.02;100.00;98454.09;1740018;80;21102;-75
2022/12/10 16:08:09;;;;;;;32.75;20.75;;;;;;;2.98;100.00;98444.38;1723851;80;21077;-74
2022/12/10 16:10:36;;;;;;;33.63;21.75;;;;;;;2.97;100.00;98448.16;1734021;80;21146;-75
2022/12/10 16:13:06;;;;;;;36.70;25.68;;;;;;;2.97;100.00;98466.16;1734415;80;21888;-75
2022/12/10 16:15:36;;;;;;;58.65;35.03;;;;;;;2.95;100.00;98465.59;1717358;81;21576;-73
2022/12/10 16:18:04;;;;;;;54.63;25.45;;;;;;;2.90;100.00;98456.95;1720416;82;21043;-74
2022/12/10 16:20:32;;;;;;;34.53;19.37;;;;;;;2.85;100.00;98449.36;1707140;82;21081;-74
2022/12/10 16:23:00;;;;;;;26.65;18.05;;;;;;;2.82;100.00;98451.21;1728209;80;21063;-74
2022/12/10 16:25:29;;;;;;;26.33;17.92;;;;;;;2.85;100.00;98444.80;1717914;80;21017;-74
2022/12/10 16:27:57;;;;;;;38.73;19.60;;;;;;;2.87;100.00;98448.03;1736529;80;21050;-74
2022/12/10 16:30:33;;;;;;;35.23;17.90;;;;;;;2.94;100.00;98435.76;1711864;81;21095;-75
2022/12/10 16:33:02;;;;;;;26.30;17.37;;;;;;;2.97;100.00;98428.53;1714927;80;21044;-74
2022/12/10 16:35:29;;;;;;;25.72;18.55;;;;;;;2.96;100.00;98421.52;1730928;81;21042;-74
2022/12/10 16:37:58;;;;;;;28.98;19.65;;;;;;;2.96;100.00;98427.71;1690421;82;21539;-76
2022/12/10 16:40:27;;;;;;;25.85;17.32;;;;;;;2.97;100.00;98433.91;1719871;82;21048;-75
2022/12/10 16:42:55;;;;;;;33.02;18.20;;;;;;;3.01;100.00;98436.36;1718344;81;21044;-76
2022/12/10 16:45:33;;;;;;;40.50;20.92;;;;;;;3.02;100.00;98447.38;1724131;82;21510;-75
2022/12/10 16:48:00;;;;;;;34.35;19.67;;;;;;;2.96;100.00;98457.28;1716742;81;21051;-76
2022/12/10 16:50:27;;;;;;;29.18;18.65;;;;;;;2.97;100.00;98452.19;1728449;81;21145;-75
2022/12/10 16:52:55;;;;;;;30.92;18.92;;;;;;;3.04;100.00;98457.89;1729268;80;20968;-76
2022/12/10 16:55:24;;;;;;;33.30;19.95;;;;;;;3.06;100.00;98463.28;1691987;82;21004;-77
2022/12/10 16:57:54;;;;;;;43.55;23.22;;;;;;;3.01;100.00;98471.31;1734119;80;21031;-74
2022/12/10 17:00:24;;;;;;;39.60;23.87;;;;;;;2.90;100.00;98468.23;1723456;80;21620;-77
2022/12/10 17:02:52;;;;;;;36.20;24.92;;;;;;;2.85;100.00;98473.02;1711546;81;21109;-76
2022/12/10 17:05:32;;;;;;;45.60;28.52;;;;;;;2.87;100.00;98468.75;1711693;81;21063;-77
2022/12/10 17:08:06;;;;;;;51.10;29.55;;;;;;;2.91;100.00;98475.22;1712151;82;20992;-76
2022/12/10 17:13:22;;;;;;;40.63;26.68;;;;;;;2.87;100.00;98474.91;1709933;81;21127;-78
2022/12/10 17:15:49;;;;;;;44.00;29.30;;;;;;;2.87;100.00;98485.66;1709055;81;21610;-76
2022/12/10 17:18:17;;;;;;;46.33;29.45;;;;;;;2.91;100.00;98467.97;1673821;83;21172;-78
2022/12/10 17:20:45;;;;;;;46.95;28.95;;;;;;;2.93;100.00;98473.92;1709155;82;21636;-77
2022/12/10 17:23:13;;;;;;;52.98;28.27;;;;;;;2.94;100.00;98481.45;1700892;82;21604;-75
2022/12/10 17:25:40;;;;;;;38.08;24.57;;;;;;;2.90;100.00;98481.68;1695180;81;21089;-76
2022/12/10 17:28:13;;;;;;;34.48;22.20;;;;;;;2.72;100.00;98449.77;1705845;81;21623;-76
2022/12/10 17:30:41;;;;;;;27.95;18.07;;;;;;;2.97;100.00;98476.39;1724182;81;21138;-75
2022/12/10 17:33:21;;;;;;;34.00;19.12;;;;;;;3.04;100.00;98490.97;1728630;81;21055;-76
2022/12/10 17:35:50;;;;;;;38.53;19.98;;;;;;;3.05;100.00;98493.13;1708669;82;21069;-76
2022/12/10 17:38:24;;;;;;;33.18;19.65;;;;;;;3.05;100.00;98497.95;1713308;81;21618;-76
2022/12/10 17:40:52;;;;;;;31.02;20.48;;;;;;;3.07;100.00;98502.55;1733042;80;21011;-74
2022/12/10 17:43:19;;;;;;;31.93;21.40;;;;;;;3.06;100.00;98508.98;1740830;80;21059;-75
2022/12/10 17:45:46;;;;;;;42.00;21.70;;;;;;;3.06;100.00;98508.98;1723796;81;21104;-75
2022/12/10 17:48:16;;;;;;;44.93;20.57;;;;;;;3.05;100.00;98502.54;1718257;82;20953;-74
2022/12/10 17:50:44;;;;;;;51.55;20.75;;;;;;;3.03;100.00;98504.66;1696842;82;21027;-75
2022/12/10 17:53:14;;;;;;;38.83;20.82;;;;;;;3.00;100.00;98505.45;1730415;81;20975;-75
2022/12/10 17:55:44;;;;;;;35.65;21.73;;;;;;;3.04;100.00;98508.45;1723487;81;21009;-76
2022/12/10 17:58:12;;;;;;;39.00;22.45;;;;;;;3.10;100.00;98513.33;1739267;80;21570;-76
2022/12/10 18:00:39;;;;;;;48.17;21.37;;;;;;;3.14;100.00;98512.58;1712851;83;21683;-75
2022/12/10 18:03:06;;;;;;;73.07;23.25;;;;;;;3.06;100.00;98510.34;1683666;83;21059;-75
